createdAt,value
2022-10-01T00:02:06.005Z,10.38
2022-10-01T00:04:32.396Z,10.34
2022-10-01T00:07:03.162Z,10.35
2022-10-01T00:09:29.494Z,10.35
2022-10-01T00:11:56.555Z,10.34
2022-10-01T00:14:23.007Z,10.33
2022-10-01T00:16:49.466Z,10.30
2022-10-01T00:19:15.933Z,10.28
2022-10-01T00:21:42.510Z,10.29
2022-10-01T00:24:12.240Z,10.28
2022-10-01T00:26:38.913Z,10.26
2022-10-01T00:29:09.877Z,10.26
2022-10-01T00:31:36.712Z,10.25
2022-10-01T00:34:03.817Z,10.24
2022-10-01T00:36:31.717Z,10.23
2022-10-01T00:39:01.995Z,10.22
2022-10-01T00:41:31.063Z,10.21
2022-10-01T00:44:01.237Z,10.20
2022-10-01T00:46:40.839Z,10.21
2022-10-01T00:49:10.923Z,10.20
2022-10-01T00:51:45.520Z,10.20
2022-10-01T00:54:17.057Z,10.21
2022-10-01T00:56:44.705Z,10.20
2022-10-01T00:59:12.076Z,10.20
2022-10-01T01:01:39.277Z,10.20
2022-10-01T01:04:16.238Z,10.22
2022-10-01T01:06:53.707Z,10.22
2022-10-01T01:09:21.155Z,10.23
2022-10-01T01:11:58.828Z,10.24
2022-10-01T01:14:36.533Z,10.27
2022-10-01T01:17:10.880Z,10.28
2022-10-01T01:20:05.614Z,10.28
2022-10-01T01:22:37.004Z,10.30
2022-10-01T01:25:14.059Z,10.26
2022-10-01T01:28:14.722Z,10.23
2022-10-01T01:30:41.505Z,10.21
2022-10-01T01:33:15.773Z,10.23
2022-10-01T01:35:49.254Z,10.22
2022-10-01T01:38:21.793Z,10.22
2022-10-01T01:40:51.467Z,10.23
2022-10-01T01:43:23.230Z,10.24
2022-10-01T01:45:52.478Z,10.23
2022-10-01T01:48:18.853Z,10.25
2022-10-01T01:50:56.940Z,10.26
2022-10-01T01:53:24.037Z,10.26
2022-10-01T01:55:50.706Z,10.26
2022-10-01T01:58:18.683Z,10.28
2022-10-01T02:00:47.705Z,10.28
2022-10-01T02:03:14.006Z,10.28
2022-10-01T02:06:08.841Z,10.28
2022-10-01T02:09:03.765Z,10.31
2022-10-01T02:11:38.032Z,10.30
2022-10-01T02:14:58.471Z,10.29
2022-10-01T02:17:46.431Z,10.30
2022-10-01T02:20:28.044Z,10.30
2022-10-01T02:23:03.520Z,10.31
2022-10-01T02:25:35.856Z,10.31
2022-10-01T02:28:08.476Z,10.32
2022-10-01T02:30:35.953Z,10.31
2022-10-01T02:33:05.324Z,10.33
2022-10-01T02:35:34.989Z,10.32
2022-10-01T02:38:05.779Z,10.34
2022-10-01T02:40:36.426Z,10.34
2022-10-01T02:43:11.124Z,10.35
2022-10-01T02:45:40.786Z,10.38
2022-10-01T02:48:11.211Z,10.38
2022-10-01T02:50:48.113Z,10.38
2022-10-01T02:53:25.901Z,10.39
2022-10-01T02:55:53.926Z,10.41
2022-10-01T02:58:21.548Z,10.41
2022-10-01T03:00:47.908Z,10.43
2022-10-01T03:03:14.232Z,10.45
2022-10-01T03:05:40.743Z,10.48
2022-10-01T03:08:07.156Z,10.49
2022-10-01T03:10:34.721Z,10.50
2022-10-01T03:13:01.786Z,10.50
2022-10-01T03:15:28.355Z,10.51
2022-10-01T03:17:55.406Z,10.54
2022-10-01T03:20:22.215Z,10.57
2022-10-01T03:22:48.685Z,10.61
2022-10-01T03:25:15.879Z,10.61
2022-10-01T03:27:42.967Z,10.64
2022-10-01T03:30:10.272Z,10.65
2022-10-01T03:32:36.649Z,10.67
2022-10-01T03:35:03.075Z,10.71
2022-10-01T03:37:29.377Z,10.72
2022-10-01T03:39:55.727Z,10.74
2022-10-01T03:42:22.062Z,10.75
2022-10-01T03:44:48.464Z,10.76
2022-10-01T03:47:14.783Z,10.80
2022-10-01T03:49:41.104Z,10.82
2022-10-01T03:52:07.452Z,10.84
2022-10-01T03:54:33.837Z,10.86
2022-10-01T03:57:00.234Z,10.85
2022-10-01T03:59:29.707Z,10.88
2022-10-01T04:01:56.122Z,10.91
2022-10-01T04:04:22.533Z,10.93
2022-10-01T04:06:48.869Z,10.95
2022-10-01T04:09:15.215Z,10.97
2022-10-01T04:11:41.550Z,11.00
2022-10-01T04:14:08.618Z,11.01
2022-10-01T04:16:36.062Z,11.02
2022-10-01T04:19:04.055Z,11.02
2022-10-01T04:21:30.391Z,11.03
2022-10-01T04:23:56.807Z,11.06
2022-10-01T04:26:23.138Z,11.07
2022-10-01T04:28:49.508Z,11.08
2022-10-01T04:31:25.250Z,11.10
2022-10-01T04:33:56.717Z,11.12
2022-10-01T04:36:24.361Z,11.12
2022-10-01T04:38:52.307Z,11.15
2022-10-01T04:41:19.210Z,11.17
2022-10-01T04:43:45.681Z,11.19
2022-10-01T04:46:12.256Z,11.20
2022-10-01T04:48:38.565Z,11.22
2022-10-01T04:51:04.960Z,11.27
2022-10-01T04:53:31.352Z,11.27
2022-10-01T04:55:57.746Z,11.31
2022-10-01T04:58:24.247Z,11.32
2022-10-01T05:00:50.798Z,11.32
2022-10-01T05:03:17.609Z,11.36
2022-10-01T05:05:44.404Z,11.39
2022-10-01T05:08:10.739Z,11.39
2022-10-01T05:10:37.169Z,11.42
2022-10-01T05:13:03.539Z,11.44
2022-10-01T05:15:30.460Z,11.44
2022-10-01T05:17:57.040Z,11.46
2022-10-01T05:20:25.946Z,11.46
2022-10-01T05:22:53.247Z,11.45
2022-10-01T05:25:20.618Z,11.45
2022-10-01T05:27:47.556Z,11.46
2022-10-01T05:30:18.554Z,11.47
2022-10-01T05:32:57.705Z,11.49
2022-10-01T05:35:24.532Z,11.49
2022-10-01T05:37:55.122Z,11.50
2022-10-01T05:40:21.662Z,11.48
2022-10-01T05:42:48.071Z,11.46
2022-10-01T05:45:14.544Z,11.44
2022-10-01T05:47:42.288Z,11.42
2022-10-01T05:50:09.331Z,11.39
2022-10-01T05:52:35.676Z,11.38
2022-10-01T05:55:01.982Z,11.35
2022-10-01T05:57:28.302Z,11.33
2022-10-01T05:59:54.595Z,11.32
2022-10-01T06:02:21.087Z,11.32
2022-10-01T06:04:47.541Z,11.29
2022-10-01T06:07:13.911Z,11.31
2022-10-01T06:09:40.233Z,11.28
2022-10-01T06:12:09.712Z,11.26
2022-10-01T06:14:36.021Z,11.28
2022-10-01T06:17:02.324Z,11.32
2022-10-01T06:19:28.619Z,11.32
2022-10-01T06:21:54.915Z,11.35
2022-10-01T06:24:21.344Z,11.34
2022-10-01T06:26:49.015Z,11.36
2022-10-01T06:29:15.410Z,11.38
2022-10-01T06:31:41.745Z,11.39
2022-10-01T06:34:08.096Z,11.39
2022-10-01T06:36:34.402Z,11.44
2022-10-01T06:39:00.746Z,11.47
2022-10-01T06:41:27.116Z,11.48
2022-10-01T06:43:53.499Z,11.56
2022-10-01T06:46:19.859Z,11.59
2022-10-01T06:48:46.211Z,11.62
2022-10-01T06:51:12.520Z,11.65
2022-10-01T06:53:38.855Z,11.70
2022-10-01T06:56:07.233Z,11.74
2022-10-01T06:58:34.528Z,11.77
2022-10-01T07:01:03.013Z,11.80
2022-10-01T07:03:31.015Z,11.86
2022-10-01T07:06:05.084Z,11.94
2022-10-01T07:08:33.034Z,12.02
2022-10-01T07:11:02.368Z,12.11
2022-10-01T07:13:28.683Z,12.27
2022-10-01T07:15:55.028Z,12.41
2022-10-01T07:18:21.363Z,12.60
2022-10-01T07:20:47.775Z,12.73
2022-10-01T07:23:15.364Z,12.93
2022-10-01T07:25:42.975Z,12.94
2022-10-01T07:28:17.797Z,12.96
2022-10-01T07:30:59.238Z,13.00
2022-10-01T07:33:25.575Z,13.05
2022-10-01T07:35:51.967Z,13.13
2022-10-01T07:38:18.297Z,13.13
2022-10-01T07:40:44.686Z,13.15
2022-10-01T07:43:11.080Z,13.19
2022-10-01T07:45:37.445Z,13.18
2022-10-01T07:48:04.262Z,13.21
2022-10-01T07:50:30.727Z,13.36
2022-10-01T07:52:58.365Z,13.42
2022-10-01T07:55:26.885Z,13.51
2022-10-01T07:57:55.319Z,13.49
2022-10-01T08:00:23.673Z,13.55
2022-10-01T08:02:51.624Z,13.64
2022-10-01T08:05:20.340Z,13.70
2022-10-01T08:07:48.116Z,13.71
2022-10-01T08:10:17.503Z,13.64
2022-10-01T08:12:44.900Z,13.54
2022-10-01T08:15:13.918Z,13.53
2022-10-01T08:17:40.395Z,13.57
2022-10-01T08:20:08.378Z,13.55
2022-10-01T08:22:39.808Z,13.55
2022-10-01T08:25:08.461Z,13.72
2022-10-01T08:27:35.097Z,13.75
2022-10-01T08:30:01.410Z,13.76
2022-10-01T08:32:28.152Z,13.75
2022-10-01T08:34:57.591Z,13.70
2022-10-01T08:37:27.024Z,13.71
2022-10-01T08:39:54.613Z,13.74
2022-10-01T08:42:52.095Z,13.90
2022-10-01T08:45:34.726Z,14.21
2022-10-01T08:48:13.271Z,14.49
2022-10-01T08:50:57.485Z,14.68
2022-10-01T08:53:47.353Z,14.97
2022-10-01T08:56:35.439Z,14.98
2022-10-01T08:59:17.024Z,14.73
2022-10-01T09:01:43.406Z,14.77
2022-10-01T09:04:10.865Z,14.95
2022-10-01T09:06:38.436Z,15.25
2022-10-01T09:09:31.042Z,15.48
2022-10-01T09:12:28.064Z,15.74
2022-10-01T09:15:17.964Z,15.93
2022-10-01T09:17:55.632Z,16.09
2022-10-01T09:20:39.008Z,16.23
2022-10-01T09:23:26.053Z,16.45
2022-10-01T09:25:52.451Z,16.49
2022-10-01T09:28:32.202Z,16.73
2022-10-01T09:31:25.722Z,16.81
2022-10-01T09:34:01.462Z,17.18
2022-10-01T09:36:45.544Z,17.07
2022-10-01T09:39:20.005Z,16.79
2022-10-01T09:41:46.725Z,16.78
2022-10-01T09:44:21.978Z,17.33
2022-10-01T09:46:48.385Z,17.62
2022-10-01T09:49:31.708Z,17.54
2022-10-01T09:52:03.908Z,17.68
2022-10-01T09:54:55.013Z,17.71
2022-10-01T09:57:44.574Z,17.83
2022-10-01T10:00:18.194Z,17.97
2022-10-01T10:02:49.185Z,18.11
2022-10-01T10:05:23.481Z,17.81
2022-10-01T10:07:53.422Z,17.31
2022-10-01T10:10:26.069Z,16.87
2022-10-01T10:12:59.132Z,16.58
2022-10-01T10:15:26.296Z,16.59
2022-10-01T10:17:55.554Z,16.97
2022-10-01T10:20:40.263Z,17.17
2022-10-01T10:23:26.711Z,17.46
2022-10-01T10:26:04.725Z,17.63
2022-10-01T10:28:44.609Z,17.29
2022-10-01T10:31:18.855Z,17.37
2022-10-01T10:34:13.470Z,17.18
2022-10-01T10:36:41.729Z,17.53
2022-10-01T10:39:20.164Z,17.79
2022-10-01T10:41:48.540Z,17.95
2022-10-01T10:44:19.478Z,17.93
2022-10-01T10:46:46.425Z,18.07
2022-10-01T10:49:29.510Z,18.12
2022-10-01T10:51:58.634Z,18.24
2022-10-01T10:54:24.900Z,18.44
2022-10-01T10:57:02.099Z,18.65
2022-10-01T10:59:31.848Z,18.64
2022-10-01T11:02:04.640Z,18.95
2022-10-01T11:04:39.739Z,19.13
2022-10-01T11:07:06.255Z,19.19
2022-10-01T11:09:37.394Z,19.16
2022-10-01T11:12:12.795Z,19.23
2022-10-01T11:15:23.368Z,19.20
2022-10-01T11:18:10.518Z,19.03
2022-10-01T11:20:55.111Z,18.51
2022-10-01T11:23:49.692Z,18.10
2022-10-01T11:26:30.894Z,17.69
2022-10-01T11:29:31.657Z,17.35
2022-10-01T11:32:16.679Z,17.05
2022-10-01T11:35:21.967Z,16.78
2022-10-01T11:38:11.694Z,16.62
2022-10-01T11:40:49.798Z,16.75
2022-10-01T11:43:23.369Z,16.72
2022-10-01T11:45:56.320Z,16.75
2022-10-01T11:48:31.466Z,17.29
2022-10-01T11:51:05.427Z,17.73
2022-10-01T11:53:38.490Z,17.67
2022-10-01T11:56:39.044Z,17.67
2022-10-01T11:59:13.815Z,18.13
2022-10-01T12:01:49.503Z,18.07
2022-10-01T12:04:32.132Z,17.78
2022-10-01T12:07:09.641Z,17.42
2022-10-01T12:09:57.743Z,17.08
2022-10-01T12:12:27.794Z,16.76
2022-10-01T12:15:23.356Z,17.00
2022-10-01T12:18:04.068Z,17.19
2022-10-01T12:20:37.843Z,17.04
2022-10-01T12:23:10.348Z,17.61
2022-10-01T12:25:46.723Z,17.96
2022-10-01T12:28:20.105Z,18.40
2022-10-01T12:31:05.422Z,18.90
2022-10-01T12:34:02.943Z,19.22
2022-10-01T12:36:53.420Z,19.64
2022-10-01T12:39:35.100Z,19.41
2022-10-01T12:42:04.228Z,18.93
2022-10-01T12:44:57.174Z,18.48
2022-10-01T12:47:35.093Z,18.06
2022-10-01T12:50:23.220Z,17.79
2022-10-01T12:53:08.989Z,17.40
2022-10-01T12:55:48.946Z,17.20
2022-10-01T12:58:41.909Z,17.96
2022-10-01T13:01:15.086Z,18.48
2022-10-01T13:03:41.391Z,18.84
2022-10-01T13:06:46.614Z,18.91
2022-10-01T13:09:48.915Z,18.34
2022-10-01T13:12:36.778Z,17.89
2022-10-01T13:15:05.687Z,17.73
2022-10-01T13:17:59.694Z,17.64
2022-10-01T13:20:46.067Z,17.50
2022-10-01T13:23:21.792Z,17.55
2022-10-01T13:26:09.454Z,17.46
2022-10-01T13:28:38.777Z,17.97
2022-10-01T13:31:15.936Z,18.49
2022-10-01T13:33:54.608Z,18.80
2022-10-01T13:36:32.683Z,19.29
2022-10-01T13:38:59.499Z,18.98
2022-10-01T13:41:34.772Z,18.50
2022-10-01T13:44:23.214Z,18.19
2022-10-01T13:46:53.451Z,17.91
2022-10-01T13:49:28.515Z,17.99
2022-10-01T13:51:55.893Z,18.37
2022-10-01T13:54:36.238Z,18.87
2022-10-01T13:57:26.325Z,18.69
2022-10-01T13:59:59.880Z,18.47
2022-10-01T14:02:37.130Z,18.18
2022-10-01T14:05:29.809Z,17.82
2022-10-01T14:08:11.685Z,17.61
2022-10-01T14:11:04.496Z,17.48
2022-10-01T14:13:53.247Z,17.52
2022-10-01T14:16:20.224Z,17.56
2022-10-01T14:18:49.234Z,17.55
2022-10-01T14:21:35.003Z,17.62
2022-10-01T14:24:33.647Z,17.58
2022-10-01T14:27:26.382Z,17.62
2022-10-01T14:30:07.285Z,17.54
2022-10-01T14:33:05.107Z,17.40
2022-10-01T14:35:35.178Z,17.29
2022-10-01T14:38:04.873Z,17.24
2022-10-01T14:40:43.071Z,17.09
2022-10-01T14:43:17.574Z,16.89
2022-10-01T14:45:57.436Z,16.71
2022-10-01T14:48:25.715Z,16.69
2022-10-01T14:50:56.156Z,16.63
2022-10-01T14:53:27.248Z,16.52
2022-10-01T14:55:56.722Z,16.26
2022-10-01T14:58:26.271Z,16.11
2022-10-01T15:00:54.975Z,16.05
2022-10-01T15:03:21.407Z,16.10
2022-10-01T15:05:51.896Z,16.12
2022-10-01T15:08:33.849Z,16.06
2022-10-01T15:11:03.827Z,16.21
2022-10-01T15:13:35.259Z,16.21
2022-10-01T15:16:02.703Z,16.13
2022-10-01T15:18:30.467Z,16.07
2022-10-01T15:21:02.541Z,15.93
2022-10-01T15:23:30.471Z,15.70
2022-10-01T15:26:00.126Z,15.55
2022-10-01T15:28:31.945Z,15.42
2022-10-01T15:31:00.881Z,15.32
2022-10-01T15:33:29.820Z,15.28
2022-10-01T15:35:58.395Z,15.22
2022-10-01T15:38:25.197Z,15.21
2022-10-01T15:41:13.996Z,15.16
2022-10-01T15:43:45.186Z,15.14
2022-10-01T15:46:18.495Z,15.09
2022-10-01T15:48:46.013Z,15.10
2022-10-01T15:51:19.269Z,15.12
2022-10-01T15:53:46.077Z,15.09
2022-10-01T15:56:16.966Z,15.07
2022-10-01T15:58:48.873Z,15.08
2022-10-01T16:01:22.655Z,15.10
2022-10-01T16:03:56.781Z,15.14
2022-10-01T16:06:29.010Z,15.22
2022-10-01T16:09:05.791Z,15.21
2022-10-01T16:11:58.238Z,15.17
2022-10-01T16:14:40.526Z,15.10
2022-10-01T16:17:18.884Z,14.97
2022-10-01T16:20:09.408Z,14.92
2022-10-01T16:22:37.477Z,14.81
2022-10-01T16:25:26.734Z,14.78
2022-10-01T16:28:20.219Z,14.77
2022-10-01T16:30:50.477Z,14.76
2022-10-01T16:33:16.887Z,14.73
2022-10-01T16:35:45.456Z,14.67
2022-10-01T16:38:12.049Z,14.62
2022-10-01T16:40:48.977Z,14.52
2022-10-01T16:43:20.676Z,14.47
2022-10-01T16:45:47.046Z,14.46
2022-10-01T16:48:15.707Z,14.45
2022-10-01T16:50:44.036Z,14.41
2022-10-01T16:53:12.666Z,14.39
2022-10-01T16:55:39.224Z,14.38
2022-10-01T16:58:06.124Z,14.40
2022-10-01T17:00:32.895Z,14.34
2022-10-01T17:02:59.793Z,14.34
2022-10-01T17:05:29.255Z,14.32
2022-10-01T17:08:01.001Z,14.31
2022-10-01T17:10:35.659Z,14.30
2022-10-01T17:13:03.488Z,14.24
2022-10-01T17:15:30.311Z,14.24
2022-10-01T17:17:58.224Z,14.21
2022-10-01T17:20:28.349Z,14.16
2022-10-01T17:22:55.493Z,14.06
2022-10-01T17:25:31.891Z,13.95
2022-10-01T17:27:59.569Z,13.89
2022-10-01T17:30:28.989Z,13.82
2022-10-01T17:32:56.031Z,13.75
2022-10-01T17:35:22.743Z,13.72
2022-10-01T17:37:49.107Z,13.67
2022-10-01T17:40:15.710Z,13.56
2022-10-01T17:42:42.043Z,13.46
2022-10-01T17:45:10.414Z,13.44
2022-10-01T17:47:36.734Z,13.34
2022-10-01T17:50:03.945Z,13.25
2022-10-01T17:52:32.071Z,13.17
2022-10-01T17:54:58.684Z,13.13
2022-10-01T17:57:25.193Z,13.10
2022-10-01T17:59:51.750Z,13.08
2022-10-01T18:02:40.528Z,13.02
2022-10-01T18:05:08.478Z,12.99
2022-10-01T18:07:39.022Z,12.98
2022-10-01T18:10:06.545Z,12.93
2022-10-01T18:12:33.711Z,12.89
2022-10-01T18:15:00.928Z,12.85
2022-10-01T18:17:27.422Z,12.85
2022-10-01T18:19:54.377Z,12.83
2022-10-01T18:22:21.343Z,12.78
2022-10-01T18:24:47.671Z,12.76
2022-10-01T18:27:14.079Z,12.72
2022-10-01T18:29:40.455Z,12.70
2022-10-01T18:32:11.295Z,12.66
2022-10-01T18:34:58.832Z,12.63
2022-10-01T18:37:52.282Z,12.58
2022-10-01T18:40:22.991Z,12.55
2022-10-01T18:43:15.432Z,12.49
2022-10-01T18:46:06.772Z,12.46
2022-10-01T18:48:51.212Z,12.43
2022-10-01T18:51:32.330Z,12.39
2022-10-01T18:54:33.490Z,12.34
2022-10-01T18:57:31.035Z,12.30
2022-10-01T19:00:08.839Z,12.27
2022-10-01T19:03:02.377Z,12.25
2022-10-01T19:05:56.396Z,12.24
2022-10-01T19:08:57.056Z,12.20
2022-10-01T19:12:08.097Z,12.18
2022-10-01T19:14:55.821Z,12.15
2022-10-01T19:17:47.167Z,12.16
2022-10-01T19:20:46.203Z,12.13
2022-10-01T19:23:41.015Z,12.11
2022-10-01T19:26:31.436Z,12.13
2022-10-01T19:29:22.272Z,12.11
2022-10-01T19:32:00.235Z,12.09
2022-10-01T19:34:45.429Z,12.09
2022-10-01T19:37:38.759Z,12.14
2022-10-01T19:40:16.703Z,12.17
2022-10-01T19:42:50.452Z,12.19
2022-10-01T19:45:21.264Z,12.20
2022-10-01T19:48:02.204Z,12.21
2022-10-01T19:50:37.022Z,12.20
2022-10-01T19:53:04.267Z,12.19
2022-10-01T19:55:38.779Z,12.21
2022-10-01T19:58:18.018Z,12.24
2022-10-01T20:00:48.059Z,12.25
2022-10-01T20:03:24.380Z,12.22
2022-10-01T20:05:58.596Z,12.19
2022-10-01T20:08:34.057Z,12.17
2022-10-01T20:11:10.181Z,12.15
2022-10-01T20:13:42.472Z,12.08
2022-10-01T20:16:35.954Z,12.09
2022-10-01T20:19:23.639Z,12.05
2022-10-01T20:22:12.858Z,12.04
2022-10-01T20:25:00.294Z,12.04
2022-10-01T20:27:59.007Z,12.03
2022-10-01T20:30:30.191Z,12.02
2022-10-01T20:33:17.063Z,12.00
2022-10-01T20:35:57.814Z,11.97
2022-10-01T20:38:29.367Z,11.94
2022-10-01T20:40:58.248Z,11.93
2022-10-01T20:43:38.494Z,11.90
2022-10-01T20:46:12.899Z,11.85
2022-10-01T20:48:43.322Z,11.84
2022-10-01T20:51:22.514Z,11.84
2022-10-01T20:53:54.030Z,11.82
2022-10-01T20:56:30.795Z,11.81
2022-10-01T20:59:24.292Z,11.80
2022-10-01T21:02:02.325Z,11.77
2022-10-01T21:04:40.823Z,11.73
2022-10-01T21:07:27.882Z,11.74
2022-10-01T21:10:01.192Z,11.71
2022-10-01T21:12:37.817Z,11.69
2022-10-01T21:15:05.007Z,11.69
2022-10-01T21:17:53.646Z,11.69
2022-10-01T21:20:38.080Z,11.69
2022-10-01T21:23:18.691Z,11.67
2022-10-01T21:26:11.732Z,11.62
2022-10-01T21:29:02.947Z,11.64
2022-10-01T21:31:29.251Z,11.63
2022-10-01T21:34:02.312Z,11.63
2022-10-01T21:36:59.314Z,11.60
2022-10-01T21:39:31.335Z,11.58
2022-10-01T21:42:29.368Z,11.56
2022-10-01T21:45:02.412Z,11.55
2022-10-01T21:47:31.392Z,11.53
2022-10-01T21:50:20.397Z,11.50
2022-10-01T21:53:31.762Z,11.50
2022-10-01T21:56:16.084Z,11.49
2022-10-01T21:58:56.973Z,11.50
2022-10-01T22:01:41.012Z,11.52
2022-10-01T22:04:21.957Z,11.53
2022-10-01T22:06:55.754Z,11.52
2022-10-01T22:09:32.947Z,11.50
2022-10-01T22:12:02.322Z,11.54
2022-10-01T22:14:29.607Z,11.55
2022-10-01T22:17:01.273Z,11.54
2022-10-01T22:19:30.216Z,11.54
2022-10-01T22:22:21.678Z,11.55
2022-10-01T22:24:57.099Z,11.54
2022-10-01T22:27:33.054Z,11.54
2022-10-01T22:30:06.236Z,11.58
2022-10-01T22:33:05.322Z,11.62
2022-10-01T22:35:51.380Z,11.68
2022-10-01T22:38:23.806Z,11.73
2022-10-01T22:41:02.035Z,11.80
2022-10-01T22:43:28.737Z,11.84
2022-10-01T22:45:57.799Z,11.91
2022-10-01T22:48:38.642Z,12.00
2022-10-01T22:51:14.780Z,12.14
2022-10-01T22:54:04.420Z,12.19
2022-10-01T22:56:43.226Z,12.23
2022-10-01T22:59:35.335Z,12.23
2022-10-01T23:02:23.487Z,12.26
2022-10-01T23:04:55.176Z,12.24
2022-10-01T23:07:53.510Z,12.26
2022-10-01T23:10:31.264Z,12.31
2022-10-01T23:13:18.723Z,12.32
2022-10-01T23:16:19.121Z,12.32
2022-10-01T23:19:00.522Z,12.30
2022-10-01T23:22:05.276Z,12.37
2022-10-01T23:25:05.203Z,12.40
2022-10-01T23:28:09.302Z,12.39
2022-10-01T23:31:06.770Z,12.38
2022-10-01T23:33:33.011Z,12.38
2022-10-01T23:36:18.160Z,12.37
2022-10-01T23:39:18.083Z,12.36
2022-10-01T23:41:59.131Z,12.32
2022-10-01T23:44:51.740Z,12.26
2022-10-01T23:47:26.963Z,12.23
2022-10-01T23:49:55.721Z,12.22
2022-10-01T23:52:31.889Z,12.21
2022-10-01T23:55:23.546Z,12.20
2022-10-01T23:57:54.173Z,12.21
